sensor_id;sensor_type;location;lat;lon;timestamp;pressure;altitude;pressure_sealevel;temperature;humidity
32747;BME280;19118;50.860;13.662;2022-11-28T00:03:15;97163.16;;;1.69;100.00
32747;BME280;19118;50.860;13.662;2022-11-28T00:08:15;97158.09;;;1.77;100.00
32747;BME280;19118;50.860;13.662;2022-11-28T00:13:16;97171.41;;;1.93;100.00
32747;BME280;19118;50.860;13.662;2022-11-28T00:18:16;97160.84;;;1.85;100.00
32747;BME280;19118;50.860;13.662;2022-11-28T00:23:17;97158.91;;;1.68;100.00
32747;BME280;19118;50.860;13.662;2022-11-28T00:28:17;97149.31;;;1.68;100.00
32747;BME280;19118;50.860;13.662;2022-11-28T00:33:17;97139.16;;;1.56;100.00
32747;BME280;19118;50.860;13.662;2022-11-28T00:38:18;97136.41;;;1.19;100.00
32747;BME280;19118;50.860;13.662;2022-11-28T00:43:18;97135.84;;;0.96;100.00
32747;BME280;19118;50.860;13.662;2022-11-28T00:48:19;97129.78;;;0.85;100.00
32747;BME280;19118;50.860;13.662;2022-11-28T00:53:20;97118.97;;;0.80;100.00
32747;BME280;19118;50.860;13.662;2022-11-28T00:58:20;97125.25;;;0.68;100.00
32747;BME280;19118;50.860;13.662;2022-11-28T01:03:21;97122.84;;;0.46;100.00
32747;BME280;19118;50.860;13.662;2022-11-28T01:08:21;97117.81;;;0.23;100.00
32747;BME280;19118;50.860;13.662;2022-11-28T01:13:21;97113.63;;;0.11;100.00
32747;BME280;19118;50.860;13.662;2022-11-28T01:18:22;97115.94;;;0.05;100.00
32747;BME280;19118;50.860;13.662;2022-11-28T01:23:22;97115.81;;;0.06;100.00
32747;BME280;19118;50.860;13.662;2022-11-28T01:28:23;97101.31;;;0.04;100.00
32747;BME280;19118;50.860;13.662;2022-11-28T01:33:23;97093.78;;;0.01;100.00
32747;BME280;19118;50.860;13.662;2022-11-28T01:38:24;97085.88;;;0.52;100.00
32747;BME280;19118;50.860;13.662;2022-11-28T01:43:25;97090.69;;;0.66;100.00
32747;BME280;19118;50.860;13.662;2022-11-28T01:48:28;97079.09;;;0.70;100.00
32747;BME280;19118;50.860;13.662;2022-11-28T01:53:32;97077.19;;;1.30;100.00
32747;BME280;19118;50.860;13.662;2022-11-28T01:58:36;97070.34;;;1.10;100.00
32747;BME280;19118;50.860;13.662;2022-11-28T02:03:43;97066.22;;;0.88;100.00
32747;BME280;19118;50.860;13.662;2022-11-28T02:08:44;97056.19;;;0.64;100.00
32747;BME280;19118;50.860;13.662;2022-11-28T02:13:57;97050.00;;;0.46;100.00
32747;BME280;19118;50.860;13.662;2022-11-28T02:35:15;97025.19;;;0.42;100.00
32747;BME280;19118;50.860;13.662;2022-11-28T02:40:25;97028.97;;;0.68;100.00
32747;BME280;19118;50.860;13.662;2022-11-28T02:45:47;97024.28;;;0.62;100.00
32747;BME280;19118;50.860;13.662;2022-11-28T02:51:05;97010.78;;;0.28;100.00
32747;BME280;19118;50.860;13.662;2022-11-28T02:56:09;97015.41;;;0.15;100.00
32747;BME280;19118;50.860;13.662;2022-11-28T03:01:23;96999.00;;;0.14;100.00
32747;BME280;19118;50.860;13.662;2022-11-28T03:06:42;97002.78;;;0.10;100.00
32747;BME280;19118;50.860;13.662;2022-11-28T03:17:17;96984.97;;;-0.04;100.00
32747;BME280;19118;50.860;13.662;2022-11-28T03:22:29;96990.25;;;0.15;100.00
32747;BME280;19118;50.860;13.662;2022-11-28T03:27:37;96980.03;;;0.52;100.00
32747;BME280;19118;50.860;13.662;2022-11-28T03:32:42;96981.53;;;0.55;100.00
32747;BME280;19118;50.860;13.662;2022-11-28T03:37:50;96978.56;;;0.69;100.00
32747;BME280;19118;50.860;13.662;2022-11-28T03:43:13;96965.94;;;0.36;100.00
32747;BME280;19118;50.860;13.662;2022-11-28T03:48:22;96971.09;;;0.16;100.00
32747;BME280;19118;50.860;13.662;2022-11-28T03:53:27;96961.91;;;0.22;100.00
32747;BME280;19118;50.860;13.662;2022-11-28T03:58:34;96958.47;;;0.02;100.00
32747;BME280;19118;50.860;13.662;2022-11-28T04:04:31;96967.97;;;-0.18;100.00
32747;BME280;19118;50.860;13.662;2022-11-28T04:15:10;96960.06;;;-0.47;100.00
32747;BME280;19118;50.860;13.662;2022-11-28T04:20:20;96951.34;;;-0.36;100.00
32747;BME280;19118;50.860;13.662;2022-11-28T04:25:24;96951.53;;;-0.28;100.00
32747;BME280;19118;50.860;13.662;2022-11-28T04:30:26;96945.50;;;-0.28;100.00
32747;BME280;19118;50.860;13.662;2022-11-28T04:35:33;96944.03;;;-0.21;100.00
32747;BME280;19118;50.860;13.662;2022-11-28T04:40:46;96937.19;;;-0.22;100.00
32747;BME280;19118;50.860;13.662;2022-11-28T04:45:51;96932.13;;;-0.24;100.00
32747;BME280;19118;50.860;13.662;2022-11-28T04:51:06;96934.16;;;-0.27;100.00
32747;BME280;19118;50.860;13.662;2022-11-28T04:56:14;96926.44;;;-0.08;100.00
32747;BME280;19118;50.860;13.662;2022-11-28T05:01:24;96920.66;;;-0.12;100.00
32747;BME280;19118;50.860;13.662;2022-11-28T05:06:27;96922.47;;;0.07;100.00
32747;BME280;19118;50.860;13.662;2022-11-28T05:11:29;96924.25;;;0.07;100.00
32747;BME280;19118;50.860;13.662;2022-11-28T05:16:29;96920.16;;;0.04;100.00
32747;BME280;19118;50.860;13.662;2022-11-28T05:21:30;96918.53;;;0.13;100.00
32747;BME280;19118;50.860;13.662;2022-11-28T05:26:30;96914.16;;;0.04;100.00
32747;BME280;19118;50.860;13.662;2022-11-28T05:31:31;96905.91;;;-0.02;100.00
32747;BME280;19118;50.860;13.662;2022-11-28T05:36:32;96909.50;;;0.17;100.00
32747;BME280;19118;50.860;13.662;2022-11-28T05:41:33;96911.16;;;0.27;100.00
32747;BME280;19118;50.860;13.662;2022-11-28T05:46:33;96893.09;;;0.26;100.00
32747;BME280;19118;50.860;13.662;2022-11-28T05:51:33;96892.81;;;0.19;100.00
32747;BME280;19118;50.860;13.662;2022-11-28T05:56:34;96866.97;;;0.37;100.00
32747;BME280;19118;50.860;13.662;2022-11-28T06:01:34;96865.03;;;0.39;100.00
32747;BME280;19118;50.860;13.662;2022-11-28T06:06:35;96856.13;;;0.42;100.00
32747;BME280;19118;50.860;13.662;2022-11-28T06:11:36;96857.78;;;0.52;100.00
32747;BME280;19118;50.860;13.662;2022-11-28T06:16:36;96860.22;;;0.64;100.00
32747;BME280;19118;50.860;13.662;2022-11-28T06:21:37;96866.22;;;0.74;100.00
32747;BME280;19118;50.860;13.662;2022-11-28T06:26:37;96855.38;;;0.88;100.00
32747;BME280;19118;50.860;13.662;2022-11-28T06:31:38;96861.53;;;0.97;100.00
32747;BME280;19118;50.860;13.662;2022-11-28T06:36:38;96857.41;;;1.04;100.00
32747;BME280;19118;50.860;13.662;2022-11-28T06:41:39;96855.19;;;1.09;100.00
32747;BME280;19118;50.860;13.662;2022-11-28T06:46:39;96854.88;;;1.12;100.00
32747;BME280;19118;50.860;13.662;2022-11-28T06:51:41;96846.66;;;1.16;100.00
32747;BME280;19118;50.860;13.662;2022-11-28T06:56:42;96848.31;;;1.17;100.00
32747;BME280;19118;50.860;13.662;2022-11-28T07:01:42;96849.13;;;1.18;100.00
32747;BME280;19118;50.860;13.662;2022-11-28T07:06:42;96843.91;;;1.18;100.00
32747;BME280;19118;50.860;13.662;2022-11-28T07:11:44;96826.06;;;1.23;100.00
32747;BME280;19118;50.860;13.662;2022-11-28T07:16:44;96823.91;;;1.19;100.00
32747;BME280;19118;50.860;13.662;2022-11-28T07:21:44;96812.06;;;1.24;100.00
32747;BME280;19118;50.860;13.662;2022-11-28T07:26:45;96823.28;;;1.34;100.00
32747;BME280;19118;50.860;13.662;2022-11-28T07:31:46;96802.94;;;1.48;100.00
32747;BME280;19118;50.860;13.662;2022-11-28T07:36:46;96809.50;;;1.52;100.00
32747;BME280;19118;50.860;13.662;2022-11-28T07:41:47;96796.81;;;1.57;100.00
32747;BME280;19118;50.860;13.662;2022-11-28T07:46:47;96792.69;;;1.64;100.00
32747;BME280;19118;50.860;13.662;2022-11-28T07:51:47;96788.28;;;1.64;100.00
32747;BME280;19118;50.860;13.662;2022-11-28T07:56:48;96793.19;;;1.67;100.00
32747;BME280;19118;50.860;13.662;2022-11-28T08:01:48;96787.91;;;1.77;100.00
32747;BME280;19118;50.860;13.662;2022-11-28T08:06:49;96796.88;;;1.92;100.00
32747;BME280;19118;50.860;13.662;2022-11-28T08:11:49;96779.66;;;1.99;100.00
32747;BME280;19118;50.860;13.662;2022-11-28T08:16:51;96769.53;;;1.96;100.00
32747;BME280;19118;50.860;13.662;2022-11-28T08:21:52;96747.72;;;1.97;100.00
32747;BME280;19118;50.860;13.662;2022-11-28T08:26:52;96759.84;;;2.07;100.00
32747;BME280;19118;50.860;13.662;2022-11-28T08:31:52;96759.31;;;2.21;100.00
32747;BME280;19118;50.860;13.662;2022-11-28T08:36:53;96777.09;;;2.43;100.00
32747;BME280;19118;50.860;13.662;2022-11-28T08:41:54;96774.16;;;2.46;100.00
32747;BME280;19118;50.860;13.662;2022-11-28T08:46:58;96753.91;;;2.40;100.00
32747;BME280;19118;50.860;13.662;2022-11-28T08:51:59;96770.16;;;2.34;100.00
32747;BME280;19118;50.860;13.662;2022-11-28T08:56:59;96794.25;;;2.28;100.00
32747;BME280;19118;50.860;13.662;2022-11-28T09:02:01;96791.66;;;2.28;100.00
32747;BME280;19118;50.860;13.662;2022-11-28T09:07:01;96807.16;;;2.29;100.00
32747;BME280;19118;50.860;13.662;2022-11-28T09:12:02;96811.31;;;2.40;100.00
32747;BME280;19118;50.860;13.662;2022-11-28T09:17:02;96833.16;;;2.39;100.00
32747;BME280;19118;50.860;13.662;2022-11-28T09:22:03;96841.13;;;2.55;100.00
32747;BME280;19118;50.860;13.662;2022-11-28T09:27:03;96835.09;;;2.81;100.00
32747;BME280;19118;50.860;13.662;2022-11-28T09:32:04;96822.88;;;3.07;100.00
32747;BME280;19118;50.860;13.662;2022-11-28T09:37:04;96812.22;;;3.35;100.00
32747;BME280;19118;50.860;13.662;2022-11-28T09:42:13;96804.41;;;3.51;100.00
32747;BME280;19118;50.860;13.662;2022-11-28T09:47:22;96798.78;;;3.72;100.00
32747;BME280;19118;50.860;13.662;2022-11-28T09:52:38;96789.28;;;3.71;100.00
32747;BME280;19118;50.860;13.662;2022-11-28T09:57:48;96787.34;;;3.65;100.00
32747;BME280;19118;50.860;13.662;2022-11-28T10:03:07;96782.25;;;3.71;100.00
32747;BME280;19118;50.860;13.662;2022-11-28T10:08:22;96781.97;;;3.74;100.00
32747;BME280;19118;50.860;13.662;2022-11-28T10:18:46;96779.84;;;3.78;100.00
32747;BME280;19118;50.860;13.662;2022-11-28T10:23:49;96764.94;;;3.70;100.00
32747;BME280;19118;50.860;13.662;2022-11-28T10:28:55;96770.84;;;3.80;100.00
32747;BME280;19118;50.860;13.662;2022-11-28T10:34:03;96768.09;;;3.98;100.00
32747;BME280;19118;50.860;13.662;2022-11-28T10:39:10;96766.16;;;4.08;100.00
32747;BME280;19118;50.860;13.662;2022-11-28T11:05:05;96737.47;;;4.72;98.19
32747;BME280;19118;50.860;13.662;2022-11-28T11:10:16;96738.78;;;4.68;98.19
32747;BME280;19118;50.860;13.662;2022-11-28T11:15:23;96743.03;;;4.61;97.62
32747;BME280;19118;50.860;13.662;2022-11-28T11:20:37;96737.34;;;4.57;97.20
32747;BME280;19118;50.860;13.662;2022-11-28T11:25:50;96738.72;;;4.84;96.64
32747;BME280;19118;50.860;13.662;2022-11-28T11:31:04;96730.03;;;5.00;96.58
32747;BME280;19118;50.860;13.662;2022-11-28T11:36:38;96733.19;;;4.87;96.00
32747;BME280;19118;50.860;13.662;2022-11-28T11:41:39;96731.13;;;5.06;95.48
32747;BME280;19118;50.860;13.662;2022-11-28T11:47:08;96728.50;;;5.14;95.39
32747;BME280;19118;50.860;13.662;2022-11-28T11:57:12;96744.03;;;5.23;93.72
32747;BME280;19118;50.860;13.662;2022-11-28T12:07:35;96739.16;;;5.43;88.33
32747;BME280;19118;50.860;13.662;2022-11-28T12:12:38;96743.75;;;5.72;86.86
32747;BME280;19118;50.860;13.662;2022-11-28T12:23:30;96735.13;;;5.64;87.56
32747;BME280;19118;50.860;13.662;2022-11-28T12:28:46;96720.78;;;5.74;86.22
32747;BME280;19118;50.860;13.662;2022-11-28T12:33:55;96738.13;;;5.52;86.99
32747;BME280;19118;50.860;13.662;2022-11-28T12:44:54;96737.63;;;5.26;91.25
32747;BME280;19118;50.860;13.662;2022-11-28T12:50:32;96742.84;;;5.26;89.96
32747;BME280;19118;50.860;13.662;2022-11-28T12:56:05;96740.69;;;4.99;91.30
32747;BME280;19118;50.860;13.662;2022-11-28T13:06:39;96752.69;;;4.77;92.34
32747;BME280;19118;50.860;13.662;2022-11-28T13:11:56;96739.72;;;4.83;94.47
32747;BME280;19118;50.860;13.662;2022-11-28T13:17:10;96735.47;;;4.74;96.17
32747;BME280;19118;50.860;13.662;2022-11-28T13:22:15;96739.13;;;4.49;95.88
32747;BME280;19118;50.860;13.662;2022-11-28T13:33:05;96744.38;;;4.41;98.27
32747;BME280;19118;50.860;13.662;2022-11-28T13:53:47;96752.22;;;3.92;100.00
32747;BME280;19118;50.860;13.662;2022-11-28T13:58:58;96740.44;;;3.79;100.00
32747;BME280;19118;50.860;13.662;2022-11-28T14:04:06;96748.78;;;3.91;100.00
32747;BME280;19118;50.860;13.662;2022-11-28T14:19:45;96744.63;;;3.48;100.00
32747;BME280;19118;50.860;13.662;2022-11-28T14:25:08;96741.50;;;3.36;100.00
32747;BME280;19118;50.860;13.662;2022-11-28T14:30:27;96740.66;;;3.36;100.00
32747;BME280;19118;50.860;13.662;2022-11-28T14:56:49;96752.63;;;2.96;100.00
32747;BME280;19118;50.860;13.662;2022-11-28T15:02:22;96745.38;;;2.90;100.00
32747;BME280;19118;50.860;13.662;2022-11-28T15:13:00;96752.56;;;2.88;100.00
32747;BME280;19118;50.860;13.662;2022-11-28T15:18:09;96752.25;;;2.91;100.00
32747;BME280;19118;50.860;13.662;2022-11-28T15:23:29;96750.56;;;2.82;100.00
32747;BME280;19118;50.860;13.662;2022-11-28T15:28:31;96758.06;;;2.77;100.00
32747;BME280;19118;50.860;13.662;2022-11-28T15:33:34;96751.69;;;2.79;100.00
32747;BME280;19118;50.860;13.662;2022-11-28T15:38:37;96747.13;;;2.81;100.00
32747;BME280;19118;50.860;13.662;2022-11-28T15:43:42;96742.53;;;2.75;100.00
32747;BME280;19118;50.860;13.662;2022-11-28T15:48:51;96740.38;;;2.71;100.00
32747;BME280;19118;50.860;13.662;2022-11-28T15:53:53;96743.16;;;2.69;100.00
32747;BME280;19118;50.860;13.662;2022-11-28T15:58:53;96738.56;;;2.63;100.00
32747;BME280;19118;50.860;13.662;2022-11-28T16:04:01;96749.25;;;2.52;100.00
32747;BME280;19118;50.860;13.662;2022-11-28T16:09:06;96752.63;;;2.44;100.00
32747;BME280;19118;50.860;13.662;2022-11-28T16:14:08;96744.63;;;2.46;100.00
32747;BME280;19118;50.860;13.662;2022-11-28T16:19:24;96739.91;;;2.41;100.00
32747;BME280;19118;50.860;13.662;2022-11-28T16:24:29;96737.28;;;2.41;100.00
32747;BME280;19118;50.860;13.662;2022-11-28T16:29:32;96752.28;;;2.39;100.00
32747;BME280;19118;50.860;13.662;2022-11-28T16:34:47;96749.50;;;2.41;100.00
32747;BME280;19118;50.860;13.662;2022-11-28T16:45:15;96732.00;;;2.33;100.00
32747;BME280;19118;50.860;13.662;2022-11-28T16:50:20;96739.50;;;2.36;100.00
32747;BME280;19118;50.860;13.662;2022-11-28T17:00:27;96735.91;;;2.29;100.00
32747;BME280;19118;50.860;13.662;2022-11-28T17:05:28;96744.06;;;2.34;100.00
32747;BME280;19118;50.860;13.662;2022-11-28T17:10:28;96747.06;;;2.39;100.00
32747;BME280;19118;50.860;13.662;2022-11-28T17:15:29;96743.47;;;2.40;100.00
32747;BME280;19118;50.860;13.662;2022-11-28T17:20:29;96739.41;;;2.46;100.00
32747;BME280;19118;50.860;13.662;2022-11-28T17:25:29;96728.38;;;2.52;100.00
32747;BME280;19118;50.860;13.662;2022-11-28T17:30:30;96728.56;;;2.58;100.00
32747;BME280;19118;50.860;13.662;2022-11-28T17:35:35;96733.44;;;2.53;100.00
32747;BME280;19118;50.860;13.662;2022-11-28T17:40:37;96730.00;;;2.53;100.00
32747;BME280;19118;50.860;13.662;2022-11-28T17:45:41;96741.13;;;2.55;100.00
32747;BME280;19118;50.860;13.662;2022-11-28T17:50:43;96742.97;;;2.62;100.00
32747;BME280;19118;50.860;13.662;2022-11-28T17:55:47;96741.63;;;2.58;100.00
32747;BME280;19118;50.860;13.662;2022-11-28T18:00:49;96745.19;;;2.57;100.00
32747;BME280;19118;50.860;13.662;2022-11-28T18:05:50;96735.09;;;2.54;100.00
32747;BME280;19118;50.860;13.662;2022-11-28T18:11:01;96744.88;;;2.52;100.00
32747;BME280;19118;50.860;13.662;2022-11-28T18:16:02;96737.53;;;2.56;100.00
32747;BME280;19118;50.860;13.662;2022-11-28T18:21:05;96729.03;;;2.54;100.00
32747;BME280;19118;50.860;13.662;2022-11-28T18:26:15;96737.69;;;2.54;100.00
32747;BME280;19118;50.860;13.662;2022-11-28T18:31:21;96740.66;;;2.59;100.00
32747;BME280;19118;50.860;13.662;2022-11-28T18:36:24;96751.47;;;2.65;100.00
32747;BME280;19118;50.860;13.662;2022-11-28T18:41:27;96746.28;;;2.73;100.00
32747;BME280;19118;50.860;13.662;2022-11-28T18:46:28;96756.03;;;2.62;100.00
32747;BME280;19118;50.860;13.662;2022-11-28T18:51:33;96751.78;;;2.61;100.00
32747;BME280;19118;50.860;13.662;2022-11-28T18:56:34;96752.69;;;2.52;100.00
32747;BME280;19118;50.860;13.662;2022-11-28T19:01:35;96741.94;;;2.55;100.00
32747;BME280;19118;50.860;13.662;2022-11-28T19:06:38;96742.59;;;2.57;100.00
32747;BME280;19118;50.860;13.662;2022-11-28T19:11:39;96742.16;;;2.62;100.00
32747;BME280;19118;50.860;13.662;2022-11-28T19:16:41;96746.41;;;2.63;100.00
32747;BME280;19118;50.860;13.662;2022-11-28T19:21:42;96753.09;;;2.66;100.00
32747;BME280;19118;50.860;13.662;2022-11-28T19:26:42;96757.84;;;2.70;100.00
32747;BME280;19118;50.860;13.662;2022-11-28T19:31:43;96758.31;;;2.66;100.00
32747;BME280;19118;50.860;13.662;2022-11-28T19:36:46;96755.31;;;2.52;100.00
32747;BME280;19118;50.860;13.662;2022-11-28T19:41:48;96750.72;;;2.28;100.00
32747;BME280;19118;50.860;13.662;2022-11-28T19:46:49;96753.19;;;2.12;100.00
32747;BME280;19118;50.860;13.662;2022-11-28T19:51:50;96747.25;;;2.02;100.00
32747;BME280;19118;50.860;13.662;2022-11-28T19:56:51;96755.88;;;2.02;100.00
32747;BME280;19118;50.860;13.662;2022-11-28T20:01:51;96754.25;;;2.01;100.00
32747;BME280;19118;50.860;13.662;2022-11-28T20:06:53;96759.78;;;1.98;100.00
32747;BME280;19118;50.860;13.662;2022-11-28T20:11:53;96758.22;;;2.06;100.00
32747;BME280;19118;50.860;13.662;2022-11-28T20:16:54;96757.16;;;1.98;100.00
32747;BME280;19118;50.860;13.662;2022-11-28T20:21:56;96745.09;;;1.97;100.00
32747;BME280;19118;50.860;13.662;2022-11-28T20:26:57;96749.56;;;1.87;100.00
32747;BME280;19118;50.860;13.662;2022-11-28T20:31:58;96753.88;;;1.79;100.00
32747;BME280;19118;50.860;13.662;2022-11-28T20:37:00;96763.03;;;1.65;100.00
32747;BME280;19118;50.860;13.662;2022-11-28T20:42:02;96764.75;;;1.56;100.00
32747;BME280;19118;50.860;13.662;2022-11-28T20:47:02;96760.94;;;1.51;100.00
32747;BME280;19118;50.860;13.662;2022-11-28T20:52:03;96760.09;;;1.32;100.00
32747;BME280;19118;50.860;13.662;2022-11-28T20:57:03;96759.41;;;1.30;100.00
32747;BME280;19118;50.860;13.662;2022-11-28T21:02:04;96764.47;;;1.14;100.00
32747;BME280;19118;50.860;13.662;2022-11-28T21:07:04;96770.53;;;1.05;100.00
32747;BME280;19118;50.860;13.662;2022-11-28T21:12:05;96775.31;;;1.00;100.00
32747;BME280;19118;50.860;13.662;2022-11-28T21:17:05;96779.31;;;1.04;100.00
32747;BME280;19118;50.860;13.662;2022-11-28T21:22:05;96782.06;;;1.02;100.00
32747;BME280;19118;50.860;13.662;2022-11-28T21:27:06;96787.00;;;0.96;100.00
32747;BME280;19118;50.860;13.662;2022-11-28T21:32:06;96784.09;;;0.99;100.00
32747;BME280;19118;50.860;13.662;2022-11-28T21:37:07;96793.56;;;0.90;100.00
32747;BME280;19118;50.860;13.662;2022-11-28T21:42:07;96795.28;;;0.81;100.00
32747;BME280;19118;50.860;13.662;2022-11-28T21:47:07;96802.00;;;0.74;100.00
32747;BME280;19118;50.860;13.662;2022-11-28T21:52:08;96802.13;;;0.73;100.00
32747;BME280;19118;50.860;13.662;2022-11-28T21:57:10;96801.56;;;0.79;100.00
32747;BME280;19118;50.860;13.662;2022-11-28T22:02:13;96794.41;;;0.91;100.00
32747;BME280;19118;50.860;13.662;2022-11-28T22:07:13;96802.31;;;0.99;100.00
32747;BME280;19118;50.860;13.662;2022-11-28T22:12:14;96801.34;;;1.00;100.00
32747;BME280;19118;50.860;13.662;2022-11-28T22:17:14;96797.75;;;1.10;100.00
32747;BME280;19118;50.860;13.662;2022-11-28T22:22:15;96794.88;;;1.13;100.00
32747;BME280;19118;50.860;13.662;2022-11-28T22:27:15;96798.38;;;1.22;100.00
32747;BME280;19118;50.860;13.662;2022-11-28T22:32:16;96802.91;;;1.20;100.00
32747;BME280;19118;50.860;13.662;2022-11-28T22:37:16;96808.25;;;1.28;100.00
32747;BME280;19118;50.860;13.662;2022-11-28T22:42:17;96797.72;;;1.48;100.00
32747;BME280;19118;50.860;13.662;2022-11-28T22:47:17;96794.47;;;1.81;100.00
32747;BME280;19118;50.860;13.662;2022-11-28T22:52:18;96792.84;;;1.98;100.00
32747;BME280;19118;50.860;13.662;2022-11-28T22:57:18;96786.91;;;2.06;100.00
32747;BME280;19118;50.860;13.662;2022-11-28T23:02:19;96785.63;;;2.10;100.00
32747;BME280;19118;50.860;13.662;2022-11-28T23:07:19;96790.75;;;2.01;100.00
32747;BME280;19118;50.860;13.662;2022-11-28T23:12:20;96785.19;;;1.96;100.00
32747;BME280;19118;50.860;13.662;2022-11-28T23:17:21;96793.38;;;2.01;100.00
32747;BME280;19118;50.860;13.662;2022-11-28T23:22:21;96780.41;;;2.10;100.00
32747;BME280;19118;50.860;13.662;2022-11-28T23:27:22;96789.03;;;2.10;100.00
32747;BME280;19118;50.860;13.662;2022-11-28T23:32:22;96783.31;;;2.07;100.00
32747;BME280;19118;50.860;13.662;2022-11-28T23:37:23;96786.22;;;2.03;100.00
32747;BME280;19118;50.860;13.662;2022-11-28T23:42:24;96779.00;;;1.97;100.00
32747;BME280;19118;50.860;13.662;2022-11-28T23:47:24;96787.78;;;1.96;100.00
32747;BME280;19118;50.860;13.662;2022-11-28T23:52:24;96795.31;;;1.99;100.00
32747;BME280;19118;50.860;13.662;2022-11-28T23:57:25;96796.78;;;2.02;100.00
